Time;durP1;ratioP1;P1;durP2;ratioP2;P2;SDS_P1;SDS_P2;PMS_P1;PMS_P2;Temp;Humidity;BMP_temperature;BMP_pressure;BME280_temperature;BME280_humidity;BME280_pressure;Samples;Min_cycle;Max_cycle;Signal;HPM_P1;HPM_P2
2022/12/10 00:01:11;;;;;;;;;;;;;;;8.16;100.00;98533.38;6122405;23;19912;-87
2022/12/10 00:03:39;;;;;;;;;;;;;;;8.16;100.00;98528.09;6120811;23;20339;-86
2022/12/10 00:06:06;;;;;;;;;;;;;;;8.16;100.00;98527.25;6123055;23;20241;-85
2022/12/10 00:08:32;;;;;;;;;;;;;;;8.16;100.00;98530.75;6223868;23;19917;-87
2022/12/10 00:10:59;;;;;;;;;;;;;;;8.15;100.00;98529.06;6224054;23;19917;-88
2022/12/10 00:13:24;;;;;;;;;;;;;;;8.16;100.00;98517.56;6123229;23;19992;-84
2022/12/10 00:15:49;;;;;;;;;;;;;;;8.17;100.00;98524.53;6123687;23;19936;-87
2022/12/10 00:18:15;;;;;;;;;;;;;;;8.16;100.00;98519.34;6121108;23;20015;-84
2022/12/10 00:20:42;;;;;;;;;;;;;;;8.16;100.00;98522.00;6122380;22;19917;-85
2022/12/10 00:23:07;;;;;;;;;;;;;;;8.18;100.00;98526.25;6123159;22;19920;-90
2022/12/10 00:25:33;;;;;;;;;;;;;;;8.17;100.00;98523.69;6122172;23;19912;-90
2022/12/10 00:28:01;;;;;;;;;;;;;;;8.18;100.00;98522.75;6121585;23;20006;-86
2022/12/10 00:30:26;;;;;;;;;;;;;;;8.17;100.00;98529.81;6225300;23;20324;-88
2022/12/10 00:32:51;;;;;;;;;;;;;;;8.18;100.00;98528.91;6251014;22;19940;-89
2022/12/10 00:35:16;;;;;;;;;;;;;;;8.24;100.00;98529.50;6247856;22;19916;-87
2022/12/10 00:37:42;;;;;;;;;;;;;;;8.21;100.00;98527.03;6122329;23;19992;-84
2022/12/10 00:40:07;;;;;;;;;;;;;;;8.21;100.00;98527.03;6224692;23;19996;-90
2022/12/10 00:42:49;;;;;;;;;;;;;;;8.19;100.00;98525.31;6225157;23;19913;-92
2022/12/10 00:45:14;;;;;;;;;;;;;;;8.20;100.00;98526.19;6122102;23;20003;-91
2022/12/10 00:47:39;;;;;;;;;;;;;;;8.20;100.00;98531.47;6122991;23;19947;-87
2022/12/10 00:50:05;;;;;;;;;;;;;;;8.19;100.00;98529.75;6222589;23;19933;-84
2022/12/10 00:52:30;;;;;;;;;;;;;;;8.19;100.00;98533.22;6122673;22;19971;-88
2022/12/10 00:54:55;;;;;;;;;;;;;;;8.21;100.00;98537.56;6121596;23;19924;-87
2022/12/10 00:57:21;;;;;;;;;;;;;;;8.21;100.00;98534.94;6249349;22;20233;-83
2022/12/10 00:59:46;;;;;;;;;;;;;;;8.19;100.00;98535.84;6122098;23;19920;-89
2022/12/10 01:02:11;;;;;;;;;;;;;;;8.19;100.00;98541.13;6121842;23;19920;-82
2022/12/10 01:04:37;;;;;;;;;;;;;;;8.21;100.00;98548.13;6223252;23;19913;-86
2022/12/10 01:07:02;;;;;;;;;;;;;;;8.21;100.00;98553.41;6122721;23;19958;-86
2022/12/10 01:09:28;;;;;;;;;;;;;;;8.21;100.00;98556.06;6122501;23;19913;-87
2022/12/10 01:11:55;;;;;;;;;;;;;;;8.20;100.00;98557.84;6122634;23;20297;-85
2022/12/10 01:14:22;;;;;;;;;;;;;;;8.21;100.00;98558.69;6122870;23;19913;-88
2022/12/10 01:16:48;;;;;;;;;;;;;;;8.19;100.00;98562.25;6121756;23;20305;-87
2022/12/10 01:19:14;;;;;;;;;;;;;;;8.22;100.00;98560.38;6121386;23;19924;-86
2022/12/10 01:21:39;;;;;;;;;;;;;;;8.21;100.00;98562.16;6225038;23;19920;-90
2022/12/10 01:24:05;;;;;;;;;;;;;;;8.21;100.00;98561.31;6223988;23;19917;-92
2022/12/10 01:26:34;;;;;;;;;;;;;;;8.23;100.00;98560.28;6121805;23;20019;-86
2022/12/10 01:29:00;;;;;;;;;;;;;;;8.21;100.00;98559.53;6121596;23;19913;-86
2022/12/10 01:31:26;;;;;;;;;;;;;;;8.23;100.00;98562.09;6122380;23;19959;-89
2022/12/10 01:33:52;;;;;;;;;;;;;;;8.22;100.00;98566.53;6122016;23;19913;-83
2022/12/10 01:36:19;;;;;;;;;;;;;;;8.22;100.00;98557.72;6122600;23;19924;-90
2022/12/10 01:38:44;;;;;;;;;;;;;;;8.23;100.00;98570.84;6122481;23;19913;-86
2022/12/10 01:41:17;;;;;;;;;;;;;;;8.23;100.00;98572.66;6251337;22;19983;-87
2022/12/10 01:43:48;;;;;;;;;;;;;;;8.23;100.00;98568.22;6226236;23;19913;-85
2022/12/10 01:46:14;;;;;;;;;;;;;;;8.23;100.00;98570.00;6222657;23;19917;-83
2022/12/10 01:48:39;;;;;;;;;;;;;;;8.24;100.00;98579.63;6122092;23;19935;-89
2022/12/10 01:51:04;;;;;;;;;;;;;;;8.24;100.00;98585.75;6124962;23;19921;-87
2022/12/10 01:53:30;;;;;;;;;;;;;;;8.25;100.00;98581.31;6123323;23;19931;-84
2022/12/10 01:55:55;;;;;;;;;;;;;;;8.24;100.00;98579.63;6122483;23;19971;-91
2022/12/10 01:58:20;;;;;;;;;;;;;;;8.22;100.00;98585.00;6121534;23;20210;-86
2022/12/10 02:01:04;;;;;;;;;;;;;;;8.25;100.00;98576.03;6122420;23;19958;-86
2022/12/10 02:03:41;;;;;;;;;;;;;;;8.25;100.00;98582.19;6122210;23;19913;-94
2022/12/10 02:06:12;;;;;;;;;;;;;;;8.25;100.00;98578.69;6123104;23;19938;-88
2022/12/10 02:08:51;;;;;;;;;;;;;;;8.24;100.00;98587.56;6123777;23;20300;-86
2022/12/10 02:11:29;;;;;;;;;;;;;;;8.26;100.00;98585.69;6121818;23;19924;-88
2022/12/10 02:14:02;;;;;;;;;;;;;;;8.26;100.00;98588.31;6122887;23;19940;-90
2022/12/10 02:16:34;;;;;;;;;;;;;;;8.25;100.00;98587.47;6122880;23;19913;-88
2022/12/10 02:19:02;;;;;;;;;;;;;;;8.25;100.00;98584.84;6222250;23;19909;-87
2022/12/10 02:21:33;;;;;;;;;;;;;;;8.26;100.00;98581.25;6122412;23;19920;-88
2022/12/10 02:24:04;;;;;;;;;;;;;;;8.25;100.00;98579.56;6223838;23;19947;-84
2022/12/10 02:26:29;;;;;;;;;;;;;;;8.26;100.00;98577.75;6223967;23;19920;-88
2022/12/10 02:28:54;;;;;;;;;;;;;;;8.26;100.00;98573.31;6224698;23;20248;-90
2022/12/10 02:31:25;;;;;;;;;;;;;;;8.28;100.00;98578.53;6123634;23;20325;-90
2022/12/10 02:33:54;;;;;;;;;;;;;;;8.26;100.00;98577.75;6121620;23;19916;-85
2022/12/10 02:36:21;;;;;;;;;;;;;;;8.26;100.00;98567.22;6123586;23;19919;-86
2022/12/10 02:38:48;;;;;;;;;;;;;;;8.27;100.00;98574.19;6122898;23;20260;-88
2022/12/10 02:41:16;;;;;;;;;;;;;;;8.28;100.00;98581.16;6124123;23;19909;-90
2022/12/10 02:43:43;;;;;;;;;;;;;;;8.27;100.00;98572.41;6122634;23;20245;-84
2022/12/10 02:46:08;;;;;;;;;;;;;;;8.26;100.00;98562.78;6121874;23;20317;-85
2022/12/10 02:48:35;;;;;;;;;;;;;;;8.26;100.00;98567.22;6121342;23;20019;-89
2022/12/10 02:51:03;;;;;;;;;;;;;;;8.27;100.00;98568.91;6224063;23;19921;-86
2022/12/10 03:09:01;;;;;;;;;;;;;;;8.25;100.00;98569.00;6112873;22;20347;-84
2022/12/10 03:11:27;;;;;;;;;;;;;;;8.25;100.00;98570.78;6122286;23;19917;-85
2022/12/10 03:14:00;;;;;;;;;;;;;;;8.26;100.00;98561.94;6122162;23;19959;-88
2022/12/10 03:16:29;;;;;;;;;;;;;;;8.26;100.00;98562.78;6224215;23;19913;-89
2022/12/10 03:18:56;;;;;;;;;;;;;;;8.26;100.00;98561.94;6122147;23;19913;-85
2022/12/10 03:21:22;;;;;;;;;;;;;;;8.25;100.00;98565.50;6122056;23;19913;-85
2022/12/10 03:23:48;;;;;;;;;;;;;;;8.26;100.00;98562.78;6120202;23;19924;-85
2022/12/10 03:26:14;;;;;;;;;;;;;;;8.26;100.00;98561.94;6223438;23;19996;-84
2022/12/10 03:28:45;;;;;;;;;;;;;;;8.25;100.00;98563.72;6121851;23;19986;-86
2022/12/10 03:31:12;;;;;;;;;;;;;;;8.27;100.00;98558.38;6121908;23;20387;-85
2022/12/10 03:33:37;;;;;;;;;;;;;;;8.26;100.00;98562.78;6121898;23;19996;-85
2022/12/10 03:36:04;;;;;;;;;;;;;;;8.26;100.00;98562.78;6121697;23;19936;-84
2022/12/10 03:38:29;;;;;;;;;;;;;;;8.26;100.00;98561.94;6120167;23;19919;-85
2022/12/10 03:40:54;;;;;;;;;;;;;;;8.28;100.00;98566.22;6121591;23;19944;-84
2022/12/10 03:43:21;;;;;;;;;;;;;;;8.28;100.00;98575.88;6122079;23;19924;-88
2022/12/10 03:45:48;;;;;;;;;;;;;;;8.28;100.00;98570.59;6121734;23;19913;-88
2022/12/10 03:48:14;;;;;;;;;;;;;;;8.27;100.00;98579.47;6121659;23;20351;-86
2022/12/10 03:50:39;;;;;;;;;;;;;;;8.28;100.00;98570.59;6121681;23;19948;-87
2022/12/10 03:53:04;;;;;;;;;;;;;;;8.29;100.00;98578.44;6120069;23;19920;-87
2022/12/10 03:55:29;;;;;;;;;;;;;;;8.29;100.00;98574.97;6121726;23;19913;-86
2022/12/10 03:57:55;;;;;;;;;;;;;;;8.27;100.00;98571.56;6121527;23;19913;-85
2022/12/10 04:00:20;;;;;;;;;;;;;;;8.29;100.00;98573.16;6121488;23;19913;-88
2022/12/10 04:02:45;;;;;;;;;;;;;;;8.30;100.00;98584.59;6121280;23;19913;-88
2022/12/10 04:05:11;;;;;;;;;;;;;;;8.29;100.00;98577.59;6249659;22;20311;-88
2022/12/10 04:07:36;;;;;;;;;;;;;;;8.29;100.00;98577.59;6121782;23;19916;-89
2022/12/10 04:10:02;;;;;;;;;;;;;;;8.29;100.00;98578.44;6122707;23;19979;-90
2022/12/10 04:12:27;;;;;;;;;;;;;;;8.29;100.00;98572.31;6225230;23;20380;-86
2022/12/10 04:17:36;;;;;;;;;;;;;;;8.29;100.00;98577.59;6123218;23;19982;-86
2022/12/10 04:20:01;;;;;;;;;;;;;;;8.29;100.00;98572.31;6123231;23;20329;-86
2022/12/10 04:27:55;;;;;;;;;;;;;;;8.31;100.00;98586.28;6122921;23;19920;-90
2022/12/10 04:30:20;;;;;;;;;;;;;;;8.30;100.00;98584.59;6123327;23;19913;-86
2022/12/10 04:32:46;;;;;;;;;;;;;;;8.30;100.00;98592.50;6225163;23;19920;-89
2022/12/10 04:35:11;;;;;;;;;;;;;;;8.30;100.00;98589.88;6122702;23;19916;-90
2022/12/10 04:37:36;;;;;;;;;;;;;;;8.29;100.00;98591.63;6121261;23;19924;-89
2022/12/10 04:40:02;;;;;;;;;;;;;;;8.32;100.00;98598.56;6122856;23;19966;-89
2022/12/10 04:42:28;;;;;;;;;;;;;;;8.29;100.00;98602.19;6123020;23;20240;-86
2022/12/10 04:44:53;;;;;;;;;;;;;;;8.30;100.00;98605.72;6123111;23;19913;-86
2022/12/10 04:47:18;;;;;;;;;;;;;;;8.30;100.00;98605.72;6122793;23;19917;-88
2022/12/10 04:49:43;;;;;;;;;;;;;;;8.30;100.00;98603.91;6250524;22;19913;-88
2022/12/10 04:52:10;;;;;;;;;;;;;;;8.31;100.00;98602.13;6121325;23;20275;-85
2022/12/10 04:54:36;;;;;;;;;;;;;;;8.30;100.00;98609.19;6123021;23;19959;-89
2022/12/10 04:57:01;;;;;;;;;;;;;;;8.30;100.00;98605.72;6250450;22;19913;-88
2022/12/10 04:59:26;;;;;;;;;;;;;;;8.32;100.00;98601.19;6122753;23;20265;-85
2022/12/10 05:01:51;;;;;;;;;;;;;;;8.30;100.00;98600.44;6250458;22;19999;-85
2022/12/10 05:04:18;;;;;;;;;;;;;;;8.32;100.00;98604.69;6122649;23;19917;-85
2022/12/10 05:06:43;;;;;;;;;;;;;;;8.30;100.00;98603.91;6223113;23;20307;-85
2022/12/10 05:09:10;;;;;;;;;;;;;;;8.31;100.00;98607.41;6122665;23;20011;-85
2022/12/10 05:11:35;;;;;;;;;;;;;;;8.29;100.00;98609.28;6217874;23;19913;-87
2022/12/10 05:14:01;;;;;;;;;;;;;;;8.29;100.00;98607.47;6250205;22;20421;-86
2022/12/10 05:16:27;;;;;;;;;;;;;;;8.30;100.00;98605.72;6122717;23;19913;-88
2022/12/10 05:18:53;;;;;;;;;;;;;;;8.28;100.00;98616.34;6224487;23;20313;-88
2022/12/10 08:51:06;;;;;;;;;;;;;;;8.17;100.00;98806.03;6293016;22;19925;-86
2022/12/10 08:53:34;;;;;;;;;;;;;;;8.17;100.00;98808.69;6308908;22;19961;-90
2022/12/10 08:55:59;;;;;;;;;;;;;;;8.16;100.00;98807.81;6309155;22;19911;-85
2022/12/10 08:58:27;;;;;;;;;;;;;;;8.15;100.00;98813.16;6309051;22;19934;-90
2022/12/10 09:00:55;;;;;;;;;;;;;;;8.15;100.00;98808.75;6309113;22;20310;-91
2022/12/10 09:03:20;;;;;;;;;;;;;;;8.14;100.00;98820.22;6308552;22;20208;-84
2022/12/10 09:05:46;;;;;;;;;;;;;;;8.15;100.00;98827.22;6307084;22;19929;-83
2022/12/10 09:08:13;;;;;;;;;;;;;;;8.14;100.00;98825.50;6280982;22;20979;-84
2022/12/10 09:10:39;;;;;;;;;;;;;;;8.13;100.00;98836.97;6308819;22;19918;-87
2022/12/10 09:13:04;;;;;;;;;;;;;;;8.13;100.00;98839.63;6309128;22;20335;-87
2022/12/10 09:15:30;;;;;;;;;;;;;;;8.14;100.00;98837.84;6281645;22;19942;-87
2022/12/10 09:17:55;;;;;;;;;;;;;;;8.15;100.00;98845.69;6281401;22;19918;-89
2022/12/10 09:20:20;;;;;;;;;;;;;;;8.14;100.00;98829.94;6307389;22;19911;-86
2022/12/10 09:22:46;;;;;;;;;;;;;;;8.13;100.00;98836.97;6281416;22;19953;-86
2022/12/10 09:25:14;;;;;;;;;;;;;;;8.14;100.00;98846.63;6308480;22;20306;-87
2022/12/10 09:27:40;;;;;;;;;;;;;;;8.16;100.00;98846.53;6281512;22;20266;-86
2022/12/10 09:30:06;;;;;;;;;;;;;;;8.16;100.00;98854.47;6308660;22;19917;-87
2022/12/10 09:32:33;;;;;;;;;;;;;;;8.16;100.00;98855.31;6308454;22;20211;-87
2022/12/10 09:35:02;;;;;;;;;;;;;;;8.16;100.00;98852.66;6305240;22;19911;-89
2022/12/10 09:37:37;;;;;;;;;;;;;;;;;;;;;
2022/12/10 09:40:03;;;;;;;;;;;;;;;8.17;100.00;98854.38;6308472;22;19993;-86
2022/12/10 09:42:37;;;;;;;;;;;;;;;8.18;100.00;98856.09;6308352;22;19945;-85
2022/12/10 09:45:14;;;;;;;;;;;;;;;8.19;100.00;98851.69;6308385;22;19965;-86
2022/12/10 09:47:44;;;;;;;;;;;;;;;8.17;100.00;98850.91;6308596;22;19942;-87
2022/12/10 09:50:19;;;;;;;;;;;;;;;8.17;100.00;98848.25;6306472;22;19915;-87
2022/12/10 09:52:47;;;;;;;;;;;;;;;8.17;100.00;98850.91;6308215;22;19919;-86
2022/12/10 09:55:25;;;;;;;;;;;;;;;8.17;100.00;98856.19;6280746;22;19921;-88
2022/12/10 09:57:53;;;;;;;;;;;;;;;8.17;100.00;98854.38;6281066;22;20000;-87
2022/12/10 10:00:40;;;;;;;;;;;;;;;8.19;100.00;98854.31;6280670;22;20311;-89
2022/12/10 10:03:13;;;;;;;;;;;;;;;8.17;100.00;98846.47;6280705;22;19933;-90
2022/12/10 10:05:49;;;;;;;;;;;;;;;8.19;100.00;98847.25;6306577;22;19911;-91
2022/12/10 10:08:23;;;;;;;;;;;;;;;8.19;100.00;98851.69;6308599;22;19911;-90
2022/12/10 10:10:51;;;;;;;;;;;;;;;8.19;100.00;98847.25;6308263;22;19911;-87
2022/12/10 10:13:36;;;;;;;;;;;;;;;8.18;100.00;98845.56;6308081;22;20262;-85
2022/12/10 10:16:16;;;;;;;;;;;;;;;8.18;100.00;98837.63;6254331;22;19917;-85
2022/12/10 10:18:45;;;;;;;;;;;;;;;8.19;100.00;98836.69;6304890;22;19907;-88
2022/12/10 10:21:27;;;;;;;;;;;;;;;8.21;100.00;98838.41;6306369;22;19911;-89
2022/12/10 10:23:55;;;;;;;;;;;;;;;8.19;100.00;98836.69;6307814;22;19915;-90
2022/12/10 10:26:23;;;;;;;;;;;;;;;8.21;100.00;98843.69;6280673;22;19945;-89
2022/12/10 10:28:57;;;;;;;;;;;;;;;8.21;100.00;98841.03;6307860;22;19960;-86
2022/12/10 10:31:31;;;;;;;;;;;;;;;8.21;100.00;98844.53;6307936;22;19915;-88
2022/12/10 10:33:58;;;;;;;;;;;;;;;8.21;100.00;98846.31;6306066;22;20248;-87
2022/12/10 10:36:38;;;;;;;;;;;;;;;;;;;;;
2022/12/10 10:39:08;;;;;;;;;;;;;;;8.21;100.00;98848.97;6283023;22;19998;-87
2022/12/10 10:41:40;;;;;;;;;;;;;;;8.22;100.00;98840.09;6307905;22;19980;-88
2022/12/10 10:44:13;;;;;;;;;;;;;;;8.22;100.00;98842.72;6306265;22;19911;-87
2022/12/10 10:46:38;;;;;;;;;;;;;;;8.21;100.00;98835.75;6280309;22;19918;-88
2022/12/10 10:49:25;;;;;;;;;;;;;;;8.21;100.00;98833.97;6304914;22;20234;-86
2022/12/10 10:51:51;;;;;;;;;;;;;;;8.21;100.00;98838.41;6243080;22;19922;-87
2022/12/10 10:54:40;;;;;;;;;;;;;;;8.21;100.00;98835.75;6243591;23;19965;-85
2022/12/10 10:57:16;;;;;;;;;;;;;;;8.17;100.00;98832.44;6227439;23;20042;-86
2022/12/10 10:59:41;;;;;;;;;;;;;;;8.21;100.00;98841.03;6243406;23;20346;-87
2022/12/10 11:02:20;;;;;;;;;;;;;;;8.22;100.00;98837.47;6243587;23;19918;-86
2022/12/10 11:04:47;;;;;;;;;;;;;;;8.22;100.00;98834.81;6241887;23;19912;-88
2022/12/10 11:07:35;;;;;;;;;;;;;;;8.23;100.00;98837.38;6243298;23;19912;-86
2022/12/10 11:10:01;;;;;;;;;;;;;;;8.23;100.00;98833.91;6227447;23;20323;-87
2022/12/10 11:12:33;;;;;;;;;;;;;;;8.24;100.00;98830.34;6243249;23;20261;-87
2022/12/10 11:14:58;;;;;;;;;;;;;;;8.23;100.00;98839.19;6243571;23;19962;-85
2022/12/10 11:17:24;;;;;;;;;;;;;;;8.22;100.00;98834.81;6304337;22;20242;-86
2022/12/10 11:19:55;;;;;;;;;;;;;;;8.22;100.00;98837.47;6307999;22;19937;-85
2022/12/10 11:22:22;;;;;;;;;;;;;;;8.23;100.00;98841.81;6282258;22;19914;-85
2022/12/10 11:24:48;;;;;;;;;;;;;;;8.22;100.00;98840.97;6282172;22;19911;-89
2022/12/10 11:27:22;;;;;;;;;;;;;;;8.23;100.00;98842.66;6308117;22;20365;-85
2022/12/10 11:29:53;;;;;;;;;;;;;;;8.23;100.00;98842.66;6282225;22;19911;-85
2022/12/10 11:32:23;;;;;;;;;;;;;;;8.23;100.00;98849.72;6309518;22;19911;-82
2022/12/10 11:35:01;;;;;;;;;;;;;;;8.21;100.00;98835.75;6280396;22;20042;-86
2022/12/10 11:37:26;;;;;;;;;;;;;;;8.22;100.00;98834.81;6309555;22;19911;-85
2022/12/10 11:40:10;;;;;;;;;;;;;;;8.23;100.00;98840.03;6309465;22;19906;-88
2022/12/10 11:42:38;;;;;;;;;;;;;;;8.22;100.00;98835.69;6309726;22;19911;-85
2022/12/10 11:45:18;;;;;;;;;;;;;;;8.24;100.00;98840.91;6309485;22;19915;-88
2022/12/10 11:48:04;;;;;;;;;;;;;;;8.24;100.00;98838.25;6309500;22;19934;-83
2022/12/10 11:50:32;;;;;;;;;;;;;;;8.25;100.00;98846.09;6307613;22;19914;-85
2022/12/10 11:53:20;;;;;;;;;;;;;;;8.26;100.00;98844.31;6309465;22;19911;-82
2022/12/10 11:55:55;;;;;;;;;;;;;;;8.25;100.00;98846.09;6308114;22;19910;-84
2022/12/10 11:58:39;;;;;;;;;;;;;;;8.26;100.00;98844.31;6282060;22;19910;-85
2022/12/10 12:01:10;;;;;;;;;;;;;;;8.27;100.00;98849.50;6309246;22;19915;-86
2022/12/10 12:03:51;;;;;;;;;;;;;;;8.27;100.00;98856.59;6282150;22;19942;-85
2022/12/10 12:06:16;;;;;;;;;;;;;;;8.25;100.00;98848.75;6309627;22;20242;-89
2022/12/10 12:09:04;;;;;;;;;;;;;;;8.27;100.00;98859.22;6309749;22;19911;-87
2022/12/10 12:11:39;;;;;;;;;;;;;;;8.26;100.00;98857.50;6309718;22;19911;-88
2022/12/10 12:14:11;;;;;;;;;;;;;;;8.25;100.00;98848.75;6307592;22;20327;-83
2022/12/10 12:16:49;;;;;;;;;;;;;;;8.25;100.00;98843.47;6309408;22;19911;-91
2022/12/10 12:19:17;;;;;;;;;;;;;;;8.25;100.00;98840.81;6307603;22;19921;-84
2022/12/10 12:21:43;;;;;;;;;;;;;;;8.26;100.00;98849.59;6281843;22;20302;-89
2022/12/10 12:24:20;;;;;;;;;;;;;;;8.28;100.00;98845.09;6309606;22;19994;-89
2022/12/10 12:26:49;;;;;;;;;;;;;;;8.28;100.00;98843.31;6282018;22;19918;-86
2022/12/10 12:29:27;;;;;;;;;;;;;;;8.28;100.00;98845.09;6309529;22;19915;-88
2022/12/10 12:32:11;;;;;;;;;;;;;;;8.29;100.00;98844.16;6282130;22;19956;-92
2022/12/10 12:34:49;;;;;;;;;;;;;;;8.28;100.00;98845.09;6308065;22;19915;-87
2022/12/10 12:37:16;;;;;;;;;;;;;;;8.29;100.00;98841.53;6281859;22;20334;-87
2022/12/10 12:39:57;;;;;;;;;;;;;;;8.29;100.00;98847.66;6309244;22;19918;-89
2022/12/10 12:42:27;;;;;;;;;;;;;;;8.28;100.00;98845.97;6275329;22;19910;-89
2022/12/10 12:44:55;;;;;;;;;;;;;;;8.28;100.00;98842.44;6309492;22;19964;-84
2022/12/10 12:47:40;;;;;;;;;;;;;;;8.27;100.00;98851.31;6281636;22;20234;-86
2022/12/10 12:50:28;;;;;;;;;;;;;;;8.28;100.00;98851.22;6280193;22;19911;-88
2022/12/10 12:52:56;;;;;;;;;;;;;;;8.28;100.00;98859.16;6281791;22;20349;-91
2022/12/10 12:55:31;;;;;;;;;;;;;;;8.27;100.00;98867.16;6308899;22;19985;-82
2022/12/10 12:58:10;;;;;;;;;;;;;;;8.27;100.00;98864.50;6308683;22;20349;-88
2022/12/10 13:00:40;;;;;;;;;;;;;;;8.26;100.00;98866.28;6308734;22;19945;-82
2022/12/10 13:03:05;;;;;;;;;;;;;;;8.28;100.00;98874.13;6308724;22;19947;-86
2022/12/10 13:05:32;;;;;;;;;;;;;;;8.28;100.00;98875.00;6307464;22;19914;-81
2022/12/10 13:08:16;;;;;;;;;;;;;;;8.28;100.00;98877.63;6308985;22;19976;-85
2022/12/10 13:10:45;;;;;;;;;;;;;;;8.30;100.00;98880.19;6308522;22;20467;-84
2022/12/10 13:13:29;;;;;;;;;;;;;;;8.28;100.00;98876.75;6281145;22;19911;-87
2022/12/10 13:15:55;;;;;;;;;;;;;;;8.28;100.00;98877.63;6308444;22;20223;-84
2022/12/10 13:18:35;;;;;;;;;;;;;;;8.29;100.00;98878.47;6281794;22;19914;-83
2022/12/10 13:21:19;;;;;;;;;;;;;;;8.28;100.00;98875.00;6279384;22;19926;-88
2022/12/10 13:23:51;;;;;;;;;;;;;;;8.27;100.00;98875.91;6281441;22;20310;-82
2022/12/10 13:26:35;;;;;;;;;;;;;;;8.27;100.00;98875.06;6281168;22;20419;-82
2022/12/10 13:29:24;;;;;;;;;;;;;;;8.27;100.00;98875.91;6308451;22;19907;-80
2022/12/10 13:32:00;;;;;;;;;;;;;;;8.28;100.00;98879.38;6281220;22;20319;-81
2022/12/10 13:34:30;;;;;;;;;;;;;;;8.26;100.00;98887.38;6306988;22;19911;-81
2022/12/10 13:37:01;;;;;;;;;;;;;;;8.26;100.00;98890.03;6308400;22;19911;-81
2022/12/10 13:39:29;;;;;;;;;;;;;;;8.26;100.00;98887.38;6307923;22;19911;-82
2022/12/10 13:45:12;;;;;;;;;;;;;;;8.27;100.00;98891.75;6308479;22;19918;-91
2022/12/10 13:47:46;;;;;;;;;;;;;;;8.28;100.00;98900.50;6280874;22;19915;-82
2022/12/10 13:50:17;;;;;;;;;;;;;;;8.27;100.00;98899.66;6306901;22;20258;-82
2022/12/10 13:52:54;;;;;;;;;;;;;;;8.27;100.00;98893.53;6308390;22;20330;-82
2022/12/10 13:55:19;;;;;;;;;;;;;;;8.28;100.00;98905.78;6308158;22;19933;-84
2022/12/10 13:57:44;;;;;;;;;;;;;;;8.27;100.00;98897.03;6281310;22;19989;-81
2022/12/10 14:00:11;;;;;;;;;;;;;;;8.28;100.00;98897.88;6308107;22;19910;-85
2022/12/10 14:02:36;;;;;;;;;;;;;;;8.26;100.00;98900.56;6308376;22;19995;-82
2022/12/10 14:05:20;;;;;;;;;;;;;;;8.27;100.00;98917.28;6306844;22;19946;-82
2022/12/10 14:07:48;;;;;;;;;;;;;;;8.27;100.00;98917.28;6280663;22;19956;-82
2022/12/10 14:10:15;;;;;;;;;;;;;;;8.26;100.00;98921.69;6308068;22;20327;-81
2022/12/10 14:12:42;;;;;;;;;;;;;;;8.27;100.00;98925.22;6308126;22;19918;-81
2022/12/10 14:15:15;;;;;;;;;;;;;;;8.26;100.00;98926.13;6281028;22;19917;-85
2022/12/10 14:17:42;;;;;;;;;;;;;;;8.26;100.00;98926.97;6308129;22;20357;-87
2022/12/10 14:20:08;;;;;;;;;;;;;;;8.26;100.00;98924.34;6306619;22;20334;-82
2022/12/10 14:22:44;;;;;;;;;;;;;;;8.27;100.00;98926.06;6308158;22;20268;-87
2022/12/10 14:25:15;;;;;;;;;;;;;;;8.27;100.00;98928.69;6280484;22;19911;-86
2022/12/10 14:27:40;;;;;;;;;;;;;;;8.26;100.00;98928.75;6307923;22;20246;-82
2022/12/10 14:30:20;;;;;;;;;;;;;;;8.27;100.00;98933.13;6307872;22;19911;-85
2022/12/10 14:32:46;;;;;;;;;;;;;;;8.28;100.00;98929.53;6308043;22;19910;-85
2022/12/10 14:35:19;;;;;;;;;;;;;;;8.26;100.00;98932.25;6306568;22;19911;-86
2022/12/10 14:37:45;;;;;;;;;;;;;;;8.26;100.00;98939.31;6280591;22;19946;-84
2022/12/10 14:40:31;;;;;;;;;;;;;;;8.26;100.00;98939.31;6307967;22;19918;-86
2022/12/10 14:43:03;;;;;;;;;;;;;;;8.26;100.00;98936.69;6254951;22;19915;-83
2022/12/10 14:45:32;;;;;;;;;;;;;;;8.26;100.00;98944.59;6308105;22;19910;-89
2022/12/10 14:47:59;;;;;;;;;;;;;;;8.27;100.00;98946.31;6307873;22;19911;-88
2022/12/10 14:50:27;;;;;;;;;;;;;;;8.26;100.00;98942.81;6305889;22;19999;-89
2022/12/10 14:52:53;;;;;;;;;;;;;;;8.26;100.00;98945.44;6307963;22;19911;-85
2022/12/10 14:55:23;;;;;;;;;;;;;;;8.28;100.00;98945.38;6307772;22;20262;-88
2022/12/10 14:57:53;;;;;;;;;;;;;;;8.28;100.00;98945.38;6307737;22;19957;-86
2022/12/10 15:00:22;;;;;;;;;;;;;;;8.28;100.00;98946.25;6278868;22;19925;-84
2022/12/10 15:02:52;;;;;;;;;;;;;;;8.29;100.00;98947.09;6279594;22;19918;-87
2022/12/10 15:05:18;;;;;;;;;;;;;;;8.28;100.00;98956.81;6277504;22;19911;-85
2022/12/10 15:07:51;;;;;;;;;;;;;;;8.28;100.00;98955.94;6306731;22;19915;-90
2022/12/10 15:10:22;;;;;;;;;;;;;;;8.29;100.00;98957.66;6306426;22;20331;-83
2022/12/10 15:12:49;;;;;;;;;;;;;;;8.28;100.00;98962.09;6306911;22;19961;-87
2022/12/10 15:15:37;;;;;;;;;;;;;;;8.29;100.00;98963.78;6253539;22;20285;-84
2022/12/10 15:18:06;;;;;;;;;;;;;;;8.28;100.00;98967.38;6306095;22;19917;-86
2022/12/10 15:20:51;;;;;;;;;;;;;;;8.29;100.00;98969.06;6304536;22;19966;-81
2022/12/10 15:23:19;;;;;;;;;;;;;;;8.29;100.00;98969.06;6305485;22;19969;-84
2022/12/10 15:25:45;;;;;;;;;;;;;;;8.29;100.00;98968.22;6279311;22;19938;-83
2022/12/10 15:28:21;;;;;;;;;;;;;;;8.29;100.00;98969.06;6303212;22;19926;-81
2022/12/10 15:30:50;;;;;;;;;;;;;;;8.29;100.00;98966.41;6306539;22;19917;-84
2022/12/10 15:33:25;;;;;;;;;;;;;;;8.28;100.00;98964.72;6306553;22;19921;-81
2022/12/10 15:35:53;;;;;;;;;;;;;;;8.30;100.00;98969.94;6304802;22;19911;-81
2022/12/10 15:38:19;;;;;;;;;;;;;;;8.29;100.00;98976.97;6305477;22;19914;-82
2022/12/10 15:40:44;;;;;;;;;;;;;;;8.30;100.00;98970.78;6277853;22;19915;-87
2022/12/10 15:43:25;;;;;;;;;;;;;;;8.29;100.00;98979.63;6305939;22;19998;-88
2022/12/10 15:45:51;;;;;;;;;;;;;;;8.28;100.00;98972.66;6306533;22;19911;-89
2022/12/10 15:48:16;;;;;;;;;;;;;;;8.29;100.00;98976.13;6304565;22;19938;-81
2022/12/10 15:50:43;;;;;;;;;;;;;;;8.29;100.00;98984.03;6297035;22;19915;-84
2022/12/10 15:53:12;;;;;;;;;;;;;;;8.30;100.00;98988.41;6274368;22;19941;-82
2022/12/10 15:55:37;;;;;;;;;;;;;;;8.30;100.00;98981.34;6273612;22;19911;-82
2022/12/10 15:58:04;;;;;;;;;;;;;;;8.29;100.00;98991.97;6273740;22;19915;-82
2022/12/10 16:00:30;;;;;;;;;;;;;;;8.29;100.00;98984.91;6275296;22;19929;-83
2022/12/10 16:03:02;;;;;;;;;;;;;;;8.30;100.00;98996.34;6276479;22;19939;-86
2022/12/10 16:05:28;;;;;;;;;;;;;;;8.30;100.00;98996.34;6274315;22;19953;-80
2022/12/10 16:07:54;;;;;;;;;;;;;;;8.29;100.00;98999.88;6275555;22;19912;-84
2022/12/10 16:10:21;;;;;;;;;;;;;;;8.28;100.00;99001.69;6276254;22;20334;-87
2022/12/10 16:12:48;;;;;;;;;;;;;;;8.30;100.00;99012.16;6275985;22;19918;-82
2022/12/10 16:15:24;;;;;;;;;;;;;;;8.28;100.00;99006.97;6277168;22;20251;-84
2022/12/10 16:17:50;;;;;;;;;;;;;;;8.29;100.00;99016.56;6274807;22;20333;-87
2022/12/10 16:20:21;;;;;;;;;;;;;;;8.29;100.00;99010.44;6273733;22;19911;-80
2022/12/10 16:22:47;;;;;;;;;;;;;;;8.30;100.00;99017.44;6275413;22;19911;-83
2022/12/10 16:25:12;;;;;;;;;;;;;;;8.30;100.00;99010.38;6275433;22;19921;-84
2022/12/10 16:27:39;;;;;;;;;;;;;;;8.31;100.00;99013.84;6276757;22;19919;-81
2022/12/10 16:30:19;;;;;;;;;;;;;;;8.31;100.00;99016.50;6276642;22;19922;-82
2022/12/10 16:32:44;;;;;;;;;;;;;;;8.31;100.00;99025.28;6274202;22;19915;-86
2022/12/10 16:35:13;;;;;;;;;;;;;;;8.32;100.00;99026.13;6265846;22;19919;-83
2022/12/10 16:37:39;;;;;;;;;;;;;;;8.32;100.00;99020.88;6275714;22;19950;-85
2022/12/10 16:40:04;;;;;;;;;;;;;;;8.31;100.00;99032.34;6274484;22;19915;-82
2022/12/10 16:42:48;;;;;;;;;;;;;;;8.32;100.00;99036.69;6274137;22;19922;-85
2022/12/10 16:45:17;;;;;;;;;;;;;;;8.31;100.00;99029.69;6274253;22;20029;-82
2022/12/10 16:47:42;;;;;;;;;;;;;;;8.32;100.00;99034.06;6275105;22;19918;-81
2022/12/10 16:50:09;;;;;;;;;;;;;;;8.32;100.00;99020.88;6274131;22;19911;-83
2022/12/10 16:52:35;;;;;;;;;;;;;;;8.32;100.00;99031.41;6305436;22;20459;-80
2022/12/10 16:55:00;;;;;;;;;;;;;;;8.32;100.00;99032.25;6307406;22;19915;-90
2022/12/10 16:57:27;;;;;;;;;;;;;;;8.32;100.00;99034.06;6307442;22;20223;-88